Scroll down
FLIGHT INFORMATION
American Airlines

AAL866

At Arrival Gate

KORD
 KPHX
DATE: 2021-05-09
GATE: H8
GATE DEPARTURE: 15:11
TAKEOFF: 15:21
DATE: 2021-05-09
GATE: A6A
LANDING: 18:35
GATE ARRIVAL: 18:41
FLIGHT DATA
Crew: 
Speed: 
475 kts
Altitude: 
30,089 ft
Stage Length: 
1,249.1 nm
Block Time: 
3.4 hrs
Flight Time: 
3.2 hrs
Fuel Used: 
22,523 lb
Cleared Route: KORD PEKUE PIPPN ELYNA BACNN STJ SLN GCK CIM ZUN DOJOE SLIDR TINIZ PAYSO EAGUL HOMRR BOHTX GEENO QUENY HINEY OBASE JAMIL RW08
TRACK DATA
50,000 ft 1,000 kts
AIRCRAFT INFO AND CUMULATIVE STATS
Aircraft Type: 
B738BW
Registration: 
SELCAL: 
CJHK
MSN/LN: 
33486 / 4438
Operator: 
Total Flights: 
7
Total Block Time: 
11.9 hrs
Total Flight Time: 
10 hrs
Total Fuel Time: 
67,234 lb
DATALINK LOG | Newest first | Current as of: 2021-06-22 13:14:45
LABEL SEQUENCE CONTENT Dn/Up
QD392518:41 7.8▼ Dn
QC321818:35▼ Dn
5Z10589 MAY 21 18:13:46z / FLT DECK GOOD / ACF POS GOOD / GRND SERVICES GOOD / MAINT GOOD▼ Dn
GA1068GATE A6A▲ Up
GR1057KPHX 18:37 MAAS 00 YP/UM 04/05 WCHR/S/C 01/02/03 HI-VAL NO DIPL/VIP YES▼ Dn
2U1348KPHX 092151Z VRB05KT 10SM FEW120 34/M02 A2974 RMK AO2 SLP053 FU DSNT N T03391022▲ Up
2S0956KPHX▼ Dn
QB224615:21▼ Dn
QA123715:11 30.4▼ Dn
A30035CLEARED TO KPHX VIA PEKUE PIPPN ELYNA BACNN J18 GCK J96 CIM ZUN EAGUL6. SQUAWK 3515.▲ Up
5U5954KPHX 091854Z 12006KT 10SM SKC 22/01 A2984▲ Up
2U5950KORD 091428Z 08011G19KT 6SM -RA BR BKN017 OVC032 06/04 A2988 RMK AO2 P0002 T00610039▲ Up
5S0033KPHX▼ Dn
2S0033KORD▼ Dn
Q05925[LINK ACK]▲ Up
Q05925[LINK TEST]▼ Dn


AIRCRAFT HISTORY
FLIGHT DATE FLIGHT NO. ORIGIN DESTINATION CLEARED ROUTE BLOCK TIME FLIGHT TIME FUEL USED PILOT
2021-06-05AAL1058KSAN KPHX KSAN JETTI ZZOOO JORRJ GRIDR BLUZE IPL HEEDS BZA HOGGZ JUDTH RKDAM HYDRR GEELA PUNNT TEICH TESLE FALGO CAGOR FOWLE RW07L1.3 hrs0.9 hrs7,005 lbMichael Collier
2021-06-04AAL1949KPHX KSAN KPHX FUTEP AZCRD USEYE MASVE OAKLI FYRBD JUDTH MOHAK HOGGZ MANRS CBOLA KRMAA SOFII CMPOE HEELX JACKK AZTEK JEEVS LUCKI LYNDI CIJHI RW271.4 hrs1.1 hrs8,036 lbMichael Collier
2021-06-04AAL1135KABQ KPHX KABQ TYILR RDRNR SPEDY PNYON ZUN DOJOE SLIDR TINIZ PAYSO EAGUL HOMRR BOHTX GEENO QUENY HINEY OBASE JAMIL RW081.1 hrs0.9 hrs6,077 lbMichael Collier
2021-06-03AAL1134KPHX KABQ KPHX SPRKY FORPE LALUZ KRKEE ELRRA XMRKS AMRRA UNCIR JILAB RW081.1 hrs0.9 hrs6,248 lbMichael Collier
2021-05-09AAL866KORD KPHX KORD PEKUE PIPPN ELYNA BACNN STJ SLN GCK CIM ZUN DOJOE SLIDR TINIZ PAYSO EAGUL HOMRR BOHTX GEENO QUENY HINEY OBASE JAMIL RW083.4 hrs3.2 hrs22,523 lbGeorge
2021-04-25AAL2363KDEN KORD KDEN ROYYL SHOBO LUPTN MRENE EEONS WYNDM HCT OBH FOD MYRRS SAAYY BENNR JBAGS BHAWK STNLE CUUPP CHMPN CLSBY FYTTE MOTRR COGSS MADII SOOLU KURKK VULCN HIMGO RRUDA RW10C2.2 hrs1.8 hrs10,901 lbGeorge
2020-11-08AAL519KJAC KDEN KDEN BREWS KDEN1.4 hrs1.2 hrs6,442 lbChemtrails